Aviation Digital Data Service (ADDS)

Output produced by METARs form (1556 UTC 03 December 2021)
found at http://www.aviationweather.gov/metar/data/
 
METAR text: DAAG 031530Z 22004KT 9999 FEW023TCU SCT080 12/09 Q1021
Conditions at: DAAG (DAR-EL-BEIDA/HOU, DZ) observed 1530 UTC 03 December 2021
Temperature: 12.0°C (54°F)
Dewpoint: 9.0°C (48°F) [RH = 82%]
Pressure (altimeter): 30.15 inches Hg (1021.0 mb)
Winds: from the SW (220 degrees) at 5 MPH (4 knots; 2.1 m/s)
Visibility: 6 or more miles (10+ km)
Ceiling: at least 12,000 feet AGL
Clouds: few clouds at 2300 feet AGL
scattered clouds at 8000 feet AGL
Weather: no significant weather observed at this time

METAR text: DAAG 031500Z 25003KT 210V300 9999 FEW023TCU SCT080 11/08 Q1020
Conditions at: DAAG (DAR-EL-BEIDA/HOU, DZ) observed 1500 UTC 03 December 2021
Temperature: 11.0°C (52°F)
Dewpoint: 8.0°C (46°F) [RH = 82%]
Pressure (altimeter): 30.12 inches Hg (1020.0 mb)
Winds: from the WSW (250 degrees) at 3 MPH (3 knots; 1.5 m/s)
Visibility: 6 or more miles (10+ km)
Ceiling: at least 12,000 feet AGL
Clouds: few clouds at 2300 feet AGL
scattered clouds at 8000 feet AGL
Weather: no significant weather observed at this time

METAR text: DAAG 031430Z 26009KT 8000 -RA FEW023TCU SCT040 13/08 Q1020
Conditions at: DAAG (DAR-EL-BEIDA/HOU, DZ) observed 1430 UTC 03 December 2021
Temperature: 13.0°C (55°F)
Dewpoint: 8.0°C (46°F) [RH = 72%]
Pressure (altimeter): 30.12 inches Hg (1020.0 mb)
Winds: from the W (260 degrees) at 10 MPH (9 knots; 4.6 m/s)
Visibility: 5 miles ( 8 km)
Ceiling: at least 12,000 feet AGL
Clouds: few clouds at 2300 feet AGL
scattered clouds at 4000 feet AGL
Weather: -RA  (light rain)

METAR text: DAAG 031400Z 26009KT 9999 FEW023TCU SCT080 13/07 Q1020
Conditions at: DAAG (DAR-EL-BEIDA/HOU, DZ) observed 1400 UTC 03 December 2021
Temperature: 13.0°C (55°F)
Dewpoint: 7.0°C (45°F) [RH = 67%]
Pressure (altimeter): 30.12 inches Hg (1020.0 mb)
Winds: from the W (260 degrees) at 10 MPH (9 knots; 4.6 m/s)
Visibility: 6 or more miles (10+ km)
Ceiling: at least 12,000 feet AGL
Clouds: few clouds at 2300 feet AGL
scattered clouds at 8000 feet AGL
Weather: no significant weather observed at this time

METAR text: DAAG 031330Z 27010KT 250V310 9999 FEW020TCU SCT036 12/07 Q1019
Conditions at: DAAG (DAR-EL-BEIDA/HOU, DZ) observed 1330 UTC 03 December 2021
Temperature: 12.0°C (54°F)
Dewpoint: 7.0°C (45°F) [RH = 71%]
Pressure (altimeter): 30.09 inches Hg (1019.0 mb)
Winds: from the W (270 degrees) at 12 MPH (10 knots; 5.1 m/s)
Visibility: 6 or more miles (10+ km)
Ceiling: at least 12,000 feet AGL
Clouds: few clouds at 2000 feet AGL
scattered clouds at 3600 feet AGL
Weather: no significant weather observed at this time

METAR text: DAAG 031300Z 28014KT 9999 FEW020TCU SCT036 12/08 Q1020
Conditions at: DAAG (DAR-EL-BEIDA/HOU, DZ) observed 1300 UTC 03 December 2021
Temperature: 12.0°C (54°F)
Dewpoint: 8.0°C (46°F) [RH = 76%]
Pressure (altimeter): 30.12 inches Hg (1020.0 mb)
Winds: from the W (280 degrees) at 16 MPH (14 knots; 7.2 m/s)
Visibility: 6 or more miles (10+ km)
Ceiling: at least 12,000 feet AGL
Clouds: few clouds at 2000 feet AGL
scattered clouds at 3600 feet AGL
Weather: no significant weather observed at this time

METAR text: DAAG 031230Z 36010KT 9999 FEW020TCU SCT036 13/07 Q1019
Conditions at: DAAG (DAR-EL-BEIDA/HOU, DZ) observed 1230 UTC 03 December 2021
Temperature: 13.0°C (55°F)
Dewpoint: 7.0°C (45°F) [RH = 67%]
Pressure (altimeter): 30.09 inches Hg (1019.0 mb)
Winds: from the N (360 degrees) at 12 MPH (10 knots; 5.1 m/s)
Visibility: 6 or more miles (10+ km)
Ceiling: at least 12,000 feet AGL
Clouds: few clouds at 2000 feet AGL
scattered clouds at 3600 feet AGL
Weather: no significant weather observed at this time

METAR text: DAAG 031200Z 29011KT 9999 FEW020TCU SCT036 13/08 Q1019
Conditions at: DAAG (DAR-EL-BEIDA/HOU, DZ) observed 1200 UTC 03 December 2021
Temperature: 13.0°C (55°F)
Dewpoint: 8.0°C (46°F) [RH = 72%]
Pressure (altimeter): 30.09 inches Hg (1019.0 mb)
Winds: from the WNW (290 degrees) at 13 MPH (11 knots; 5.7 m/s)
Visibility: 6 or more miles (10+ km)
Ceiling: at least 12,000 feet AGL
Clouds: few clouds at 2000 feet AGL
scattered clouds at 3600 feet AGL
Weather: no significant weather observed at this time

METAR text: DAAG 031130Z 31010KT 280V340 9999 FEW020TCU SCT036 13/07 Q1019
Conditions at: DAAG (DAR-EL-BEIDA/HOU, DZ) observed 1130 UTC 03 December 2021
Temperature: 13.0°C (55°F)
Dewpoint: 7.0°C (45°F) [RH = 67%]
Pressure (altimeter): 30.09 inches Hg (1019.0 mb)
Winds: from the NW (310 degrees) at 12 MPH (10 knots; 5.1 m/s)
Visibility: 6 or more miles (10+ km)
Ceiling: at least 12,000 feet AGL
Clouds: few clouds at 2000 feet AGL
scattered clouds at 3600 feet AGL
Weather: no significant weather observed at this time

METAR text: DAAG 031100Z 30007KT 9999 FEW020 SCT036 13/07 Q1019
Conditions at: DAAG (DAR-EL-BEIDA/HOU, DZ) observed 1100 UTC 03 December 2021
Temperature: 13.0°C (55°F)
Dewpoint: 7.0°C (45°F) [RH = 67%]
Pressure (altimeter): 30.09 inches Hg (1019.0 mb)
Winds: from the WNW (300 degrees) at 8 MPH (7 knots; 3.6 m/s)
Visibility: 6 or more miles (10+ km)
Ceiling: at least 12,000 feet AGL
Clouds: few clouds at 2000 feet AGL
scattered clouds at 3600 feet AGL
Weather: no significant weather observed at this time

METAR text: DAAG 031030Z 32007KT 9999 FEW020 SCT036 12/06 Q1019
Conditions at: DAAG (DAR-EL-BEIDA/HOU, DZ) observed 1030 UTC 03 December 2021
Temperature: 12.0°C (54°F)
Dewpoint: 6.0°C (43°F) [RH = 67%]
Pressure (altimeter): 30.09 inches Hg (1019.0 mb)
Winds: from the NW (320 degrees) at 8 MPH (7 knots; 3.6 m/s)
Visibility: 6 or more miles (10+ km)
Ceiling: at least 12,000 feet AGL
Clouds: few clouds at 2000 feet AGL
scattered clouds at 3600 feet AGL
Weather: no significant weather observed at this time

METAR text: DAAG 031000Z 25007KT 210V290 9999 -RA FEW020 SCT036 11/07 Q1019
Conditions at: DAAG (DAR-EL-BEIDA/HOU, DZ) observed 1000 UTC 03 December 2021
Temperature: 11.0°C (52°F)
Dewpoint: 7.0°C (45°F) [RH = 76%]
Pressure (altimeter): 30.09 inches Hg (1019.0 mb)
Winds: from the WSW (250 degrees) at 8 MPH (7 knots; 3.6 m/s)
Visibility: 6 or more miles (10+ km)
Ceiling: at least 12,000 feet AGL
Clouds: few clouds at 2000 feet AGL
scattered clouds at 3600 feet AGL
Weather: -RA  (light rain)

METAR text: DAAG 030930Z 20007KT 9999 FEW020 SCT036 11/08 Q1019
Conditions at: DAAG (DAR-EL-BEIDA/HOU, DZ) observed 0930 UTC 03 December 2021
Temperature: 11.0°C (52°F)
Dewpoint: 8.0°C (46°F) [RH = 82%]
Pressure (altimeter): 30.09 inches Hg (1019.0 mb)
Winds: from the SSW (200 degrees) at 8 MPH (7 knots; 3.6 m/s)
Visibility: 6 or more miles (10+ km)
Ceiling: at least 12,000 feet AGL
Clouds: few clouds at 2000 feet AGL
scattered clouds at 3600 feet AGL
Weather: no significant weather observed at this time

METAR text: DAAG 030900Z 20006KT 9999 FEW020 SCT036 10/08 Q1018
Conditions at: DAAG (DAR-EL-BEIDA/HOU, DZ) observed 0900 UTC 03 December 2021
Temperature: 10.0°C (50°F)
Dewpoint: 8.0°C (46°F) [RH = 87%]
Pressure (altimeter): 30.06 inches Hg (1018.0 mb)
Winds: from the SSW (200 degrees) at 7 MPH (6 knots; 3.1 m/s)
Visibility: 6 or more miles (10+ km)
Ceiling: at least 12,000 feet AGL
Clouds: few clouds at 2000 feet AGL
scattered clouds at 3600 feet AGL
Weather: no significant weather observed at this time

METAR text: DAAG 030830Z 17003KT 140V200 9999 FEW020 FEW026CB SCT036 09/08 Q1018
Conditions at: DAAG (DAR-EL-BEIDA/HOU, DZ) observed 0830 UTC 03 December 2021
Temperature: 9.0°C (48°F)
Dewpoint: 8.0°C (46°F) [RH = 93%]
Pressure (altimeter): 30.06 inches Hg (1018.0 mb)
Winds: from the S (170 degrees) at 3 MPH (3 knots; 1.5 m/s)
Visibility: 6 or more miles (10+ km)
Ceiling: at least 12,000 feet AGL
Clouds: few clouds at 2000 feet AGL
few clouds at 2600 feet AGL
scattered clouds at 3600 feet AGL
Weather: no significant weather observed at this time

METAR text: DAAG 030800Z 14004KT 9999 FEW020 FEW026CB SCT036 09/07 Q1017
Conditions at: DAAG (DAR-EL-BEIDA/HOU, DZ) observed 0800 UTC 03 December 2021
Temperature: 9.0°C (48°F)
Dewpoint: 7.0°C (45°F) [RH = 87%]
Pressure (altimeter): 30.03 inches Hg (1017.0 mb)
Winds: from the SE (140 degrees) at 5 MPH (4 knots; 2.1 m/s)
Visibility: 6 or more miles (10+ km)
Ceiling: at least 12,000 feet AGL
Clouds: few clouds at 2000 feet AGL
few clouds at 2600 feet AGL
scattered clouds at 3600 feet AGL
Weather: no significant weather observed at this time

METAR text: DAAG 030730Z 18004KT 110V230 9999 FEW020 FEW026CB SCT036 08/07 Q1017
Conditions at: DAAG (DAR-EL-BEIDA/HOU, DZ) observed 0730 UTC 03 December 2021
Temperature: 8.0°C (46°F)
Dewpoint: 7.0°C (45°F) [RH = 93%]
Pressure (altimeter): 30.03 inches Hg (1017.0 mb)
Winds: from the S (180 degrees) at 5 MPH (4 knots; 2.1 m/s)
Visibility: 6 or more miles (10+ km)
Ceiling: at least 12,000 feet AGL
Clouds: few clouds at 2000 feet AGL
few clouds at 2600 feet AGL
scattered clouds at 3600 feet AGL
Weather: no significant weather observed at this time

METAR text: DAAG 030700Z 32003KT 270V360 9999 FEW020 FEW026CB SCT036 09/05 Q1017 RETS
Conditions at: DAAG (DAR-EL-BEIDA/HOU, DZ) observed 0700 UTC 03 December 2021
Temperature: 9.0°C (48°F)
Dewpoint: 5.0°C (41°F) [RH = 76%]
Pressure (altimeter): 30.03 inches Hg (1017.0 mb)
Winds: from the NW (320 degrees) at 3 MPH (3 knots; 1.5 m/s)
Visibility: 6 or more miles (10+ km)
Ceiling: at least 12,000 feet AGL
Clouds: few clouds at 2000 feet AGL
few clouds at 2600 feet AGL
scattered clouds at 3600 feet AGL
Weather: no significant weather observed at this time

METAR text: DAAG 030630Z 36010KT 9999 TS FEW015 FEW026CB BKN036 09/07 Q1016
Conditions at: DAAG (DAR-EL-BEIDA/HOU, DZ) observed 0630 UTC 03 December 2021
Temperature: 9.0°C (48°F)
Dewpoint: 7.0°C (45°F) [RH = 87%]
Pressure (altimeter): 30.00 inches Hg (1016.0 mb)
Winds: from the N (360 degrees) at 12 MPH (10 knots; 5.1 m/s)
Visibility: 6 or more miles (10+ km)
Ceiling: 3600 feet AGL
Clouds: few clouds at 1500 feet AGL
few clouds at 2600 feet AGL
broken clouds at 3600 feet AGL
Weather: TS  (thunderstorm)

METAR text: DAAG 030600Z 26006KT 200V330 9999 -TSRA FEW015 FEW026CB BKN036 09/05 Q1015
Conditions at: DAAG (DAR-EL-BEIDA/HOU, DZ) observed 0600 UTC 03 December 2021
Temperature: 9.0°C (48°F)
Dewpoint: 5.0°C (41°F) [RH = 76%]
Pressure (altimeter): 29.97 inches Hg (1015.0 mb)
Winds: from the W (260 degrees) at 7 MPH (6 knots; 3.1 m/s)
Visibility: 6 or more miles (10+ km)
Ceiling: 3600 feet AGL
Clouds: few clouds at 1500 feet AGL
few clouds at 2600 feet AGL
broken clouds at 3600 feet AGL
Weather: -TSRA  (light rain associated with thunderstorm(s))

METAR text: DAAG 030530Z 31003KT 9999 TS FEW020 FEW026CB BKN040 09/07 Q1015
Conditions at: DAAG (DAR-EL-BEIDA/HOU, DZ) observed 0530 UTC 03 December 2021
Temperature: 9.0°C (48°F)
Dewpoint: 7.0°C (45°F) [RH = 87%]
Pressure (altimeter): 29.97 inches Hg (1015.0 mb)
Winds: from the NW (310 degrees) at 3 MPH (3 knots; 1.5 m/s)
Visibility: 6 or more miles (10+ km)
Ceiling: 4000 feet AGL
Clouds: few clouds at 2000 feet AGL
few clouds at 2600 feet AGL
broken clouds at 4000 feet AGL
Weather: TS  (thunderstorm)

METAR text: DAAG 030500Z 26011KT 230V290 9999 TS FEW020 FEW026CB BKN040 09/07 Q1014
Conditions at: DAAG (DAR-EL-BEIDA/HOU, DZ) observed 0500 UTC 03 December 2021
Temperature: 9.0°C (48°F)
Dewpoint: 7.0°C (45°F) [RH = 87%]
Pressure (altimeter): 29.94 inches Hg (1014.0 mb)
Winds: from the W (260 degrees) at 13 MPH (11 knots; 5.7 m/s)
Visibility: 6 or more miles (10+ km)
Ceiling: 4000 feet AGL
Clouds: few clouds at 2000 feet AGL
few clouds at 2600 feet AGL
broken clouds at 4000 feet AGL
Weather: TS  (thunderstorm)

METAR text: DAAG 030430Z 24006KT 9999 TS FEW020 FEW026CB BKN040 08/07 Q1014
Conditions at: DAAG (DAR-EL-BEIDA/HOU, DZ) observed 0430 UTC 03 December 2021
Temperature: 8.0°C (46°F)
Dewpoint: 7.0°C (45°F) [RH = 93%]
Pressure (altimeter): 29.94 inches Hg (1014.0 mb)
Winds: from the WSW (240 degrees) at 7 MPH (6 knots; 3.1 m/s)
Visibility: 6 or more miles (10+ km)
Ceiling: 4000 feet AGL
Clouds: few clouds at 2000 feet AGL
few clouds at 2600 feet AGL
broken clouds at 4000 feet AGL
Weather: TS  (thunderstorm)

METAR text: DAAG 030400Z 22010KT 9999 TS FEW020 FEW026CB BKN040 08/07 Q1014
Conditions at: DAAG (DAR-EL-BEIDA/HOU, DZ) observed 0400 UTC 03 December 2021
Temperature: 8.0°C (46°F)
Dewpoint: 7.0°C (45°F) [RH = 93%]
Pressure (altimeter): 29.94 inches Hg (1014.0 mb)
Winds: from the SW (220 degrees) at 12 MPH (10 knots; 5.1 m/s)
Visibility: 6 or more miles (10+ km)
Ceiling: 4000 feet AGL
Clouds: few clouds at 2000 feet AGL
few clouds at 2600 feet AGL
broken clouds at 4000 feet AGL
Weather: TS  (thunderstorm)

METAR text: DAAG 030330Z 22009KT 9999 TS FEW020 FEW026CB BKN040 09/08 Q1014
Conditions at: DAAG (DAR-EL-BEIDA/HOU, DZ) observed 0330 UTC 03 December 2021
Temperature: 9.0°C (48°F)
Dewpoint: 8.0°C (46°F) [RH = 93%]
Pressure (altimeter): 29.94 inches Hg (1014.0 mb)
Winds: from the SW (220 degrees) at 10 MPH (9 knots; 4.6 m/s)
Visibility: 6 or more miles (10+ km)
Ceiling: 4000 feet AGL
Clouds: few clouds at 2000 feet AGL
few clouds at 2600 feet AGL
broken clouds at 4000 feet AGL
Weather: TS  (thunderstorm)

METAR text: DAAG 030300Z 23011KT 200V270 6000 -TSRA FEW020 FEW026CB BKN040 09/08 Q1014
Conditions at: DAAG (DAR-EL-BEIDA/HOU, DZ) observed 0300 UTC 03 December 2021
Temperature: 9.0°C (48°F)
Dewpoint: 8.0°C (46°F) [RH = 93%]
Pressure (altimeter): 29.94 inches Hg (1014.0 mb)
Winds: from the SW (230 degrees) at 13 MPH (11 knots; 5.7 m/s)
Visibility: 4 miles ( 6 km)
Ceiling: 4000 feet AGL
Clouds: few clouds at 2000 feet AGL
few clouds at 2600 feet AGL
broken clouds at 4000 feet AGL
Weather: -TSRA  (light rain associated with thunderstorm(s))

METAR text: DAAG 030230Z 23006KT 9999 -TSRA FEW020 FEW026CB BKN040 09/08 Q1014
Conditions at: DAAG (DAR-EL-BEIDA/HOU, DZ) observed 0230 UTC 03 December 2021
Temperature: 9.0°C (48°F)
Dewpoint: 8.0°C (46°F) [RH = 93%]
Pressure (altimeter): 29.94 inches Hg (1014.0 mb)
Winds: from the SW (230 degrees) at 7 MPH (6 knots; 3.1 m/s)
Visibility: 6 or more miles (10+ km)
Ceiling: 4000 feet AGL
Clouds: few clouds at 2000 feet AGL
few clouds at 2600 feet AGL
broken clouds at 4000 feet AGL
Weather: -TSRA  (light rain associated with thunderstorm(s))

METAR text: DAAG 030200Z 24006KT 210V290 9999 -RA FEW020 FEW026CB BKN040 09/08 Q1014
Conditions at: DAAG (DAR-EL-BEIDA/HOU, DZ) observed 0200 UTC 03 December 2021
Temperature: 9.0°C (48°F)
Dewpoint: 8.0°C (46°F) [RH = 93%]
Pressure (altimeter): 29.94 inches Hg (1014.0 mb)
Winds: from the WSW (240 degrees) at 7 MPH (6 knots; 3.1 m/s)
Visibility: 6 or more miles (10+ km)
Ceiling: 4000 feet AGL
Clouds: few clouds at 2000 feet AGL
few clouds at 2600 feet AGL
broken clouds at 4000 feet AGL
Weather: -RA  (light rain)

METAR text: DAAG 030130Z 21005KT 9999 -RA FEW020 FEW026CB BKN040 08/08 Q1013
Conditions at: DAAG (DAR-EL-BEIDA/HOU, DZ) observed 0130 UTC 03 December 2021
Temperature: 8.0°C (46°F)
Dewpoint: 8.0°C (46°F) [RH = 100%]
Pressure (altimeter): 29.91 inches Hg (1013.0 mb)
Winds: from the SSW (210 degrees) at 6 MPH (5 knots; 2.6 m/s)
Visibility: 6 or more miles (10+ km)
Ceiling: 4000 feet AGL
Clouds: few clouds at 2000 feet AGL
few clouds at 2600 feet AGL
broken clouds at 4000 feet AGL
Weather: -RA  (light rain)

METAR text: DAAG 030100Z 18005KT 9999 FEW020 FEW026CB BKN040 09/08 Q1013
Conditions at: DAAG (DAR-EL-BEIDA/HOU, DZ) observed 0100 UTC 03 December 2021
Temperature: 9.0°C (48°F)
Dewpoint: 8.0°C (46°F) [RH = 93%]
Pressure (altimeter): 29.91 inches Hg (1013.0 mb)
Winds: from the S (180 degrees) at 6 MPH (5 knots; 2.6 m/s)
Visibility: 6 or more miles (10+ km)
Ceiling: 4000 feet AGL
Clouds: few clouds at 2000 feet AGL
few clouds at 2600 feet AGL
broken clouds at 4000 feet AGL
Weather: no significant weather observed at this time

METAR text: DAAG 030030Z 19005KT 150V250 9999 FEW020 FEW026CB BKN040 09/08 Q1014
Conditions at: DAAG (DAR-EL-BEIDA/HOU, DZ) observed 0030 UTC 03 December 2021
Temperature: 9.0°C (48°F)
Dewpoint: 8.0°C (46°F) [RH = 93%]
Pressure (altimeter): 29.94 inches Hg (1014.0 mb)
Winds: from the S (190 degrees) at 6 MPH (5 knots; 2.6 m/s)
Visibility: 6 or more miles (10+ km)
Ceiling: 4000 feet AGL
Clouds: few clouds at 2000 feet AGL
few clouds at 2600 feet AGL
broken clouds at 4000 feet AGL
Weather: no significant weather observed at this time

METAR text: DAAG 030000Z 24008KT 200V290 7000 -RA FEW020 FEW026CB BKN040 09/08 Q1014
Conditions at: DAAG (DAR-EL-BEIDA/HOU, DZ) observed 0000 UTC 03 December 2021
Temperature: 9.0°C (48°F)
Dewpoint: 8.0°C (46°F) [RH = 93%]
Pressure (altimeter): 29.94 inches Hg (1014.0 mb)
Winds: from the WSW (240 degrees) at 9 MPH (8 knots; 4.1 m/s)
Visibility: 4 miles ( 7 km)
Ceiling: 4000 feet AGL
Clouds: few clouds at 2000 feet AGL
few clouds at 2600 feet AGL
broken clouds at 4000 feet AGL
Weather: -RA  (light rain)

METAR text: DAAG 022330Z 24003KT 210V280 9999 -RA FEW020 FEW026CB BKN040 09/07 Q1013
Conditions at: DAAG (DAR-EL-BEIDA/HOU, DZ) observed 2330 UTC 02 December 2021
Temperature: 9.0°C (48°F)
Dewpoint: 7.0°C (45°F) [RH = 87%]
Pressure (altimeter): 29.91 inches Hg (1013.0 mb)
Winds: from the WSW (240 degrees) at 3 MPH (3 knots; 1.5 m/s)
Visibility: 6 or more miles (10+ km)
Ceiling: 4000 feet AGL
Clouds: few clouds at 2000 feet AGL
few clouds at 2600 feet AGL
broken clouds at 4000 feet AGL
Weather: -RA  (light rain)

METAR text: DAAG 022300Z 21008KT 9999 FEW020 FEW026CB SCT040 09/07 Q1013
Conditions at: DAAG (DAR-EL-BEIDA/HOU, DZ) observed 2300 UTC 02 December 2021
Temperature: 9.0°C (48°F)
Dewpoint: 7.0°C (45°F) [RH = 87%]
Pressure (altimeter): 29.91 inches Hg (1013.0 mb)
Winds: from the SSW (210 degrees) at 9 MPH (8 knots; 4.1 m/s)
Visibility: 6 or more miles (10+ km)
Ceiling: at least 12,000 feet AGL
Clouds: few clouds at 2000 feet AGL
few clouds at 2600 feet AGL
scattered clouds at 4000 feet AGL
Weather: no significant weather observed at this time

METAR text: DAAG 022230Z 21008KT 9999 FEW020 FEW026CB SCT040 09/07 Q1013
Conditions at: DAAG (DAR-EL-BEIDA/HOU, DZ) observed 2230 UTC 02 December 2021
Temperature: 9.0°C (48°F)
Dewpoint: 7.0°C (45°F) [RH = 87%]
Pressure (altimeter): 29.91 inches Hg (1013.0 mb)
Winds: from the SSW (210 degrees) at 9 MPH (8 knots; 4.1 m/s)
Visibility: 6 or more miles (10+ km)
Ceiling: at least 12,000 feet AGL
Clouds: few clouds at 2000 feet AGL
few clouds at 2600 feet AGL
scattered clouds at 4000 feet AGL
Weather: no significant weather observed at this time

METAR text: DAAG 022200Z 23009KT 200V260 9999 -RA FEW020 FEW026CB BKN040 09/07 Q1013
Conditions at: DAAG (DAR-EL-BEIDA/HOU, DZ) observed 2200 UTC 02 December 2021
Temperature: 9.0°C (48°F)
Dewpoint: 7.0°C (45°F) [RH = 87%]
Pressure (altimeter): 29.91 inches Hg (1013.0 mb)
Winds: from the SW (230 degrees) at 10 MPH (9 knots; 4.6 m/s)
Visibility: 6 or more miles (10+ km)
Ceiling: 4000 feet AGL
Clouds: few clouds at 2000 feet AGL
few clouds at 2600 feet AGL
broken clouds at 4000 feet AGL
Weather: -RA  (light rain)

METAR text: DAAG 022130Z 25009KT 210V280 6000 -RA FEW020 FEW026CB BKN040 09/07 Q1013
Conditions at: DAAG (DAR-EL-BEIDA/HOU, DZ) observed 2130 UTC 02 December 2021
Temperature: 9.0°C (48°F)
Dewpoint: 7.0°C (45°F) [RH = 87%]
Pressure (altimeter): 29.91 inches Hg (1013.0 mb)
Winds: from the WSW (250 degrees) at 10 MPH (9 knots; 4.6 m/s)
Visibility: 4 miles ( 6 km)
Ceiling: 4000 feet AGL
Clouds: few clouds at 2000 feet AGL
few clouds at 2600 feet AGL
broken clouds at 4000 feet AGL
Weather: -RA  (light rain)

METAR text: DAAG 022100Z 23004KT 190V270 9999 FEW020 FEW026CB BKN040 10/07 Q1013
Conditions at: DAAG (DAR-EL-BEIDA/HOU, DZ) observed 2100 UTC 02 December 2021
Temperature: 10.0°C (50°F)
Dewpoint: 7.0°C (45°F) [RH = 82%]
Pressure (altimeter): 29.91 inches Hg (1013.0 mb)
Winds: from the SW (230 degrees) at 5 MPH (4 knots; 2.1 m/s)
Visibility: 6 or more miles (10+ km)
Ceiling: 4000 feet AGL
Clouds: few clouds at 2000 feet AGL
few clouds at 2600 feet AGL
broken clouds at 4000 feet AGL
Weather: no significant weather observed at this time

METAR text: DAAG 022030Z 21005KT 9999 FEW020 FEW026CB BKN040 10/08 Q1012
Conditions at: DAAG (DAR-EL-BEIDA/HOU, DZ) observed 2030 UTC 02 December 2021
Temperature: 10.0°C (50°F)
Dewpoint: 8.0°C (46°F) [RH = 87%]
Pressure (altimeter): 29.88 inches Hg (1012.0 mb)
Winds: from the SSW (210 degrees) at 6 MPH (5 knots; 2.6 m/s)
Visibility: 6 or more miles (10+ km)
Ceiling: 4000 feet AGL
Clouds: few clouds at 2000 feet AGL
few clouds at 2600 feet AGL
broken clouds at 4000 feet AGL
Weather: no significant weather observed at this time

METAR text: DAAG 022000Z 24006KT 200V270 9999 -RA FEW020 FEW026CB BKN040 10/08 Q1012
Conditions at: DAAG (DAR-EL-BEIDA/HOU, DZ) observed 2000 UTC 02 December 2021
Temperature: 10.0°C (50°F)
Dewpoint: 8.0°C (46°F) [RH = 87%]
Pressure (altimeter): 29.88 inches Hg (1012.0 mb)
Winds: from the WSW (240 degrees) at 7 MPH (6 knots; 3.1 m/s)
Visibility: 6 or more miles (10+ km)
Ceiling: 4000 feet AGL
Clouds: few clouds at 2000 feet AGL
few clouds at 2600 feet AGL
broken clouds at 4000 feet AGL
Weather: -RA  (light rain)

METAR text: DAAG 021930Z 25005KT 200V310 9999 -RA FEW020 FEW026CB BKN040 10/08 Q1012
Conditions at: DAAG (DAR-EL-BEIDA/HOU, DZ) observed 1930 UTC 02 December 2021
Temperature: 10.0°C (50°F)
Dewpoint: 8.0°C (46°F) [RH = 87%]
Pressure (altimeter): 29.88 inches Hg (1012.0 mb)
Winds: from the WSW (250 degrees) at 6 MPH (5 knots; 2.6 m/s)
Visibility: 6 or more miles (10+ km)
Ceiling: 4000 feet AGL
Clouds: few clouds at 2000 feet AGL
few clouds at 2600 feet AGL
broken clouds at 4000 feet AGL
Weather: -RA  (light rain)

METAR text: DAAG 021900Z 22009KT 190V250 9999 -RA FEW020 FEW026CB BKN040 10/09 Q1011
Conditions at: DAAG (DAR-EL-BEIDA/HOU, DZ) observed 1900 UTC 02 December 2021
Temperature: 10.0°C (50°F)
Dewpoint: 9.0°C (48°F) [RH = 93%]
Pressure (altimeter): 29.85 inches Hg (1011.0 mb)
Winds: from the SW (220 degrees) at 10 MPH (9 knots; 4.6 m/s)
Visibility: 6 or more miles (10+ km)
Ceiling: 4000 feet AGL
Clouds: few clouds at 2000 feet AGL
few clouds at 2600 feet AGL
broken clouds at 4000 feet AGL
Weather: -RA  (light rain)

METAR text: DAAG 021830Z 21007KT 9999 -RA FEW020 FEW026CB BKN040 10/09 Q1011
Conditions at: DAAG (DAR-EL-BEIDA/HOU, DZ) observed 1830 UTC 02 December 2021
Temperature: 10.0°C (50°F)
Dewpoint: 9.0°C (48°F) [RH = 93%]
Pressure (altimeter): 29.85 inches Hg (1011.0 mb)
Winds: from the SSW (210 degrees) at 8 MPH (7 knots; 3.6 m/s)
Visibility: 6 or more miles (10+ km)
Ceiling: 4000 feet AGL
Clouds: few clouds at 2000 feet AGL
few clouds at 2600 feet AGL
broken clouds at 4000 feet AGL
Weather: -RA  (light rain)

METAR text: DAAG 021800Z 25007KT 6000 -RA FEW020 FEW026CB BKN040 10/09 Q1011
Conditions at: DAAG (DAR-EL-BEIDA/HOU, DZ) observed 1800 UTC 02 December 2021
Temperature: 10.0°C (50°F)
Dewpoint: 9.0°C (48°F) [RH = 93%]
Pressure (altimeter): 29.85 inches Hg (1011.0 mb)
Winds: from the WSW (250 degrees) at 8 MPH (7 knots; 3.6 m/s)
Visibility: 4 miles ( 6 km)
Ceiling: 4000 feet AGL
Clouds: few clouds at 2000 feet AGL
few clouds at 2600 feet AGL
broken clouds at 4000 feet AGL
Weather: -RA  (light rain)

METAR text: DAAG 021730Z 25006KT 6000 -RA FEW020 FEW026CB BKN036 10/09 Q1011
Conditions at: DAAG (DAR-EL-BEIDA/HOU, DZ) observed 1730 UTC 02 December 2021
Temperature: 10.0°C (50°F)
Dewpoint: 9.0°C (48°F) [RH = 93%]
Pressure (altimeter): 29.85 inches Hg (1011.0 mb)
Winds: from the WSW (250 degrees) at 7 MPH (6 knots; 3.1 m/s)
Visibility: 4 miles ( 6 km)
Ceiling: 3600 feet AGL
Clouds: few clouds at 2000 feet AGL
few clouds at 2600 feet AGL
broken clouds at 3600 feet AGL
Weather: -RA  (light rain)

METAR text: DAAG 021700Z 24006KT 6000 -RA FEW020 FEW026CB BKN036 10/09 Q1010
Conditions at: DAAG (DAR-EL-BEIDA/HOU, DZ) observed 1700 UTC 02 December 2021
Temperature: 10.0°C (50°F)
Dewpoint: 9.0°C (48°F) [RH = 93%]
Pressure (altimeter): 29.82 inches Hg (1010.0 mb)
Winds: from the WSW (240 degrees) at 7 MPH (6 knots; 3.1 m/s)
Visibility: 4 miles ( 6 km)
Ceiling: 3600 feet AGL
Clouds: few clouds at 2000 feet AGL
few clouds at 2600 feet AGL
broken clouds at 3600 feet AGL
Weather: -RA  (light rain)

METAR text: DAAG 021630Z 24004KT 6000 -RA FEW013 FEW026CB BKN036 10/09 Q1010
Conditions at: DAAG (DAR-EL-BEIDA/HOU, DZ) observed 1630 UTC 02 December 2021
Temperature: 10.0°C (50°F)
Dewpoint: 9.0°C (48°F) [RH = 93%]
Pressure (altimeter): 29.82 inches Hg (1010.0 mb)
Winds: from the WSW (240 degrees) at 5 MPH (4 knots; 2.1 m/s)
Visibility: 4 miles ( 6 km)
Ceiling: 3600 feet AGL
Clouds: few clouds at 1300 feet AGL
few clouds at 2600 feet AGL
broken clouds at 3600 feet AGL
Weather: -RA  (light rain)

METAR text: DAAG 021600Z 25005KT 210V270 6000 -RA FEW013 FEW026CB BKN036 10/09 Q1009 RERA
Conditions at: DAAG (DAR-EL-BEIDA/HOU, DZ) observed 1600 UTC 02 December 2021
Temperature: 10.0°C (50°F)
Dewpoint: 9.0°C (48°F) [RH = 93%]
Pressure (altimeter): 29.79 inches Hg (1009.0 mb)
Winds: from the WSW (250 degrees) at 6 MPH (5 knots; 2.6 m/s)
Visibility: 4 miles ( 6 km)
Ceiling: 3600 feet AGL
Clouds: few clouds at 1300 feet AGL
few clouds at 2600 feet AGL
broken clouds at 3600 feet AGL
Weather: -RA  (light rain)

METAR text: DAAG 021530Z 24005KT 4000 RA FEW013 FEW020CB BKN036 10/10 Q1009
Conditions at: DAAG (DAR-EL-BEIDA/HOU, DZ) observed 1530 UTC 02 December 2021
Temperature: 10.0°C (50°F)
Dewpoint: 10.0°C (50°F) [RH = 100%]
Pressure (altimeter): 29.79 inches Hg (1009.0 mb)
Winds: from the WSW (240 degrees) at 6 MPH (5 knots; 2.6 m/s)
Visibility: 2.49 miles (4.01 km)
Ceiling: 3600 feet AGL
Clouds: few clouds at 1300 feet AGL
few clouds at 2000 feet AGL
broken clouds at 3600 feet AGL
Weather: RA  (moderate rain)

METAR text: DAAG 021500Z 30003KT 6000 -RA FEW013 FEW020CB BKN036 10/10 Q1009 RERA
Conditions at: DAAG (DAR-EL-BEIDA/HOU, DZ) observed 1500 UTC 02 December 2021
Temperature: 10.0°C (50°F)
Dewpoint: 10.0°C (50°F) [RH = 100%]
Pressure (altimeter): 29.79 inches Hg (1009.0 mb)
Winds: from the WNW (300 degrees) at 3 MPH (3 knots; 1.5 m/s)
Visibility: 4 miles ( 6 km)
Ceiling: 3600 feet AGL
Clouds: few clouds at 1300 feet AGL
few clouds at 2000 feet AGL
broken clouds at 3600 feet AGL
Weather: -RA  (light rain)

METAR text: DAAG 021430Z 27004KT 250V310 6000 -RA FEW013 FEW026CB BKN036 10/09 Q1008 RERA
Conditions at: DAAG (DAR-EL-BEIDA/HOU, DZ) observed 1430 UTC 02 December 2021
Temperature: 10.0°C (50°F)
Dewpoint: 9.0°C (48°F) [RH = 93%]
Pressure (altimeter): 29.76 inches Hg (1008.0 mb)
Winds: from the W (270 degrees) at 5 MPH (4 knots; 2.1 m/s)
Visibility: 4 miles ( 6 km)
Ceiling: 3600 feet AGL
Clouds: few clouds at 1300 feet AGL
few clouds at 2600 feet AGL
broken clouds at 3600 feet AGL
Weather: -RA  (light rain)

METAR text: DAAG 021400Z 29005KT 4000 RA FEW013 FEW026CB BKN036 10/09 Q1008
Conditions at: DAAG (DAR-EL-BEIDA/HOU, DZ) observed 1400 UTC 02 December 2021
Temperature: 10.0°C (50°F)
Dewpoint: 9.0°C (48°F) [RH = 93%]
Pressure (altimeter): 29.76 inches Hg (1008.0 mb)
Winds: from the WNW (290 degrees) at 6 MPH (5 knots; 2.6 m/s)
Visibility: 2.49 miles (4.01 km)
Ceiling: 3600 feet AGL
Clouds: few clouds at 1300 feet AGL
few clouds at 2600 feet AGL
broken clouds at 3600 feet AGL
Weather: RA  (moderate rain)

METAR text: DAAG 021330Z 27010KT 4000 -RA FEW013 FEW026CB BKN070 11/09 Q1008 RERA
Conditions at: DAAG (DAR-EL-BEIDA/HOU, DZ) observed 1330 UTC 02 December 2021
Temperature: 11.0°C (52°F)
Dewpoint: 9.0°C (48°F) [RH = 87%]
Pressure (altimeter): 29.76 inches Hg (1008.0 mb)
Winds: from the W (270 degrees) at 12 MPH (10 knots; 5.1 m/s)
Visibility: 2.49 miles (4.01 km)
Ceiling: 7000 feet AGL
Clouds: few clouds at 1300 feet AGL
few clouds at 2600 feet AGL
broken clouds at 7000 feet AGL
Weather: -RA  (light rain)

METAR text: DAAG 021300Z 27010KT 9999 -RA FEW020 FEW026CB BKN070 12/10 Q1008
Conditions at: DAAG (DAR-EL-BEIDA/HOU, DZ) observed 1300 UTC 02 December 2021
Temperature: 12.0°C (54°F)
Dewpoint: 10.0°C (50°F) [RH = 88%]
Pressure (altimeter): 29.76 inches Hg (1008.0 mb)
Winds: from the W (270 degrees) at 12 MPH (10 knots; 5.1 m/s)
Visibility: 6 or more miles (10+ km)
Ceiling: 7000 feet AGL
Clouds: few clouds at 2000 feet AGL
few clouds at 2600 feet AGL
broken clouds at 7000 feet AGL
Weather: -RA  (light rain)

METAR text: DAAG 021230Z 24010KT 210V270 9999 -RA FEW020 FEW026CB BKN070 12/10 Q1008
Conditions at: DAAG (DAR-EL-BEIDA/HOU, DZ) observed 1230 UTC 02 December 2021
Temperature: 12.0°C (54°F)
Dewpoint: 10.0°C (50°F) [RH = 88%]
Pressure (altimeter): 29.76 inches Hg (1008.0 mb)
Winds: from the WSW (240 degrees) at 12 MPH (10 knots; 5.1 m/s)
Visibility: 6 or more miles (10+ km)
Ceiling: 7000 feet AGL
Clouds: few clouds at 2000 feet AGL
few clouds at 2600 feet AGL
broken clouds at 7000 feet AGL
Weather: -RA  (light rain)

METAR text: DAAG 021200Z 25009KT 210V270 9999 FEW020 FEW026CB BKN070 13/10 Q1008
Conditions at: DAAG (DAR-EL-BEIDA/HOU, DZ) observed 1200 UTC 02 December 2021
Temperature: 13.0°C (55°F)
Dewpoint: 10.0°C (50°F) [RH = 82%]
Pressure (altimeter): 29.76 inches Hg (1008.0 mb)
Winds: from the WSW (250 degrees) at 10 MPH (9 knots; 4.6 m/s)
Visibility: 6 or more miles (10+ km)
Ceiling: 7000 feet AGL
Clouds: few clouds at 2000 feet AGL
few clouds at 2600 feet AGL
broken clouds at 7000 feet AGL
Weather: no significant weather observed at this time

METAR text: DAAG 021130Z 23007KT 210V270 9999 -RA FEW020 FEW026CB BKN070 12/11 Q1008
Conditions at: DAAG (DAR-EL-BEIDA/HOU, DZ) observed 1130 UTC 02 December 2021
Temperature: 12.0°C (54°F)
Dewpoint: 11.0°C (52°F) [RH = 94%]
Pressure (altimeter): 29.76 inches Hg (1008.0 mb)
Winds: from the SW (230 degrees) at 8 MPH (7 knots; 3.6 m/s)
Visibility: 6 or more miles (10+ km)
Ceiling: 7000 feet AGL
Clouds: few clouds at 2000 feet AGL
few clouds at 2600 feet AGL
broken clouds at 7000 feet AGL
Weather: -RA  (light rain)

METAR text: DAAG 021100Z 23007KT 200V270 9999 -RA FEW023 FEW026CB BKN036 12/11 Q1009
Conditions at: DAAG (DAR-EL-BEIDA/HOU, DZ) observed 1100 UTC 02 December 2021
Temperature: 12.0°C (54°F)
Dewpoint: 11.0°C (52°F) [RH = 94%]
Pressure (altimeter): 29.79 inches Hg (1009.0 mb)
Winds: from the SW (230 degrees) at 8 MPH (7 knots; 3.6 m/s)
Visibility: 6 or more miles (10+ km)
Ceiling: 3600 feet AGL
Clouds: few clouds at 2300 feet AGL
few clouds at 2600 feet AGL
broken clouds at 3600 feet AGL
Weather: -RA  (light rain)

METAR text: DAAG 021030Z 23009KT 200V260 9999 -RA FEW023 FEW026CB BKN036 12/11 Q1009 RERA
Conditions at: DAAG (DAR-EL-BEIDA/HOU, DZ) observed 1030 UTC 02 December 2021
Temperature: 12.0°C (54°F)
Dewpoint: 11.0°C (52°F) [RH = 94%]
Pressure (altimeter): 29.79 inches Hg (1009.0 mb)
Winds: from the SW (230 degrees) at 10 MPH (9 knots; 4.6 m/s)
Visibility: 6 or more miles (10+ km)
Ceiling: 3600 feet AGL
Clouds: few clouds at 2300 feet AGL
few clouds at 2600 feet AGL
broken clouds at 3600 feet AGL
Weather: -RA  (light rain)

METAR text: DAAG 020930Z 32014KT 4000 -RA FEW023 FEW026CB BKN036 12/09 Q1009
Conditions at: DAAG (DAR-EL-BEIDA/HOU, DZ) observed 0930 UTC 02 December 2021
Temperature: 12.0°C (54°F)
Dewpoint: 9.0°C (48°F) [RH = 82%]
Pressure (altimeter): 29.79 inches Hg (1009.0 mb)
Winds: from the NW (320 degrees) at 16 MPH (14 knots; 7.2 m/s)
Visibility: 2.49 miles (4.01 km)
Ceiling: 3600 feet AGL
Clouds: few clouds at 2300 feet AGL
few clouds at 2600 feet AGL
broken clouds at 3600 feet AGL
Weather: -RA  (light rain)

METAR text: DAAG 020900Z 26012KT 9999 -RA FEW023 FEW026CB SCT040 14/09 Q1009
Conditions at: DAAG (DAR-EL-BEIDA/HOU, DZ) observed 0900 UTC 02 December 2021
Temperature: 14.0°C (57°F)
Dewpoint: 9.0°C (48°F) [RH = 72%]
Pressure (altimeter): 29.79 inches Hg (1009.0 mb)
Winds: from the W (260 degrees) at 14 MPH (12 knots; 6.2 m/s)
Visibility: 6 or more miles (10+ km)
Ceiling: at least 12,000 feet AGL
Clouds: few clouds at 2300 feet AGL
few clouds at 2600 feet AGL
scattered clouds at 4000 feet AGL
Weather: -RA  (light rain)

METAR text: DAAG 020830Z 26012KT 9999 FEW023 FEW026CB SCT050 15/08 Q1008
Conditions at: DAAG (DAR-EL-BEIDA/HOU, DZ) observed 0830 UTC 02 December 2021
Temperature: 15.0°C (59°F)
Dewpoint: 8.0°C (46°F) [RH = 63%]
Pressure (altimeter): 29.76 inches Hg (1008.0 mb)
Winds: from the W (260 degrees) at 14 MPH (12 knots; 6.2 m/s)
Visibility: 6 or more miles (10+ km)
Ceiling: at least 12,000 feet AGL
Clouds: few clouds at 2300 feet AGL
few clouds at 2600 feet AGL
scattered clouds at 5000 feet AGL
Weather: no significant weather observed at this time

METAR text: DAAG 020800Z 24010KT 9999 FEW023 SCT050 14/08 Q1008
Conditions at: DAAG (DAR-EL-BEIDA/HOU, DZ) observed 0800 UTC 02 December 2021
Temperature: 14.0°C (57°F)
Dewpoint: 8.0°C (46°F) [RH = 67%]
Pressure (altimeter): 29.76 inches Hg (1008.0 mb)
Winds: from the WSW (240 degrees) at 12 MPH (10 knots; 5.1 m/s)
Visibility: 6 or more miles (10+ km)
Ceiling: at least 12,000 feet AGL
Clouds: few clouds at 2300 feet AGL
scattered clouds at 5000 feet AGL
Weather: no significant weather observed at this time

METAR text: DAAG 020730Z 25011KT 210V270 9999 FEW023 BKN053 14/07 Q1008
Conditions at: DAAG (DAR-EL-BEIDA/HOU, DZ) observed 0730 UTC 02 December 2021
Temperature: 14.0°C (57°F)
Dewpoint: 7.0°C (45°F) [RH = 63%]
Pressure (altimeter): 29.76 inches Hg (1008.0 mb)
Winds: from the WSW (250 degrees) at 13 MPH (11 knots; 5.7 m/s)
Visibility: 6 or more miles (10+ km)
Ceiling: 5300 feet AGL
Clouds: few clouds at 2300 feet AGL
broken clouds at 5300 feet AGL
Weather: no significant weather observed at this time

METAR text: DAAG 020700Z 25010KT 210V270 9999 FEW023 BKN053 14/07 Q1008
Conditions at: DAAG (DAR-EL-BEIDA/HOU, DZ) observed 0700 UTC 02 December 2021
Temperature: 14.0°C (57°F)
Dewpoint: 7.0°C (45°F) [RH = 63%]
Pressure (altimeter): 29.76 inches Hg (1008.0 mb)
Winds: from the WSW (250 degrees) at 12 MPH (10 knots; 5.1 m/s)
Visibility: 6 or more miles (10+ km)
Ceiling: 5300 feet AGL
Clouds: few clouds at 2300 feet AGL
broken clouds at 5300 feet AGL
Weather: no significant weather observed at this time

METAR text: DAAG 020630Z 25012KT 210V280 9999 FEW023 BKN053 15/08 Q1009
Conditions at: DAAG (DAR-EL-BEIDA/HOU, DZ) observed 0630 UTC 02 December 2021
Temperature: 15.0°C (59°F)
Dewpoint: 8.0°C (46°F) [RH = 63%]
Pressure (altimeter): 29.79 inches Hg (1009.0 mb)
Winds: from the WSW (250 degrees) at 14 MPH (12 knots; 6.2 m/s)
Visibility: 6 or more miles (10+ km)
Ceiling: 5300 feet AGL
Clouds: few clouds at 2300 feet AGL
broken clouds at 5300 feet AGL
Weather: no significant weather observed at this time

METAR text: DAAG 020600Z 25011KT 220V280 9999 FEW023 SCT080 15/07 Q1009
Conditions at: DAAG (DAR-EL-BEIDA/HOU, DZ) observed 0600 UTC 02 December 2021
Temperature: 15.0°C (59°F)
Dewpoint: 7.0°C (45°F) [RH = 59%]
Pressure (altimeter): 29.79 inches Hg (1009.0 mb)
Winds: from the WSW (250 degrees) at 13 MPH (11 knots; 5.7 m/s)
Visibility: 6 or more miles (10+ km)
Ceiling: at least 12,000 feet AGL
Clouds: few clouds at 2300 feet AGL
scattered clouds at 8000 feet AGL
Weather: no significant weather observed at this time

METAR text: DAAG 020530Z 24010KT 200V270 9999 FEW023 SCT080 14/07 Q1009
Conditions at: DAAG (DAR-EL-BEIDA/HOU, DZ) observed 0530 UTC 02 December 2021
Temperature: 14.0°C (57°F)
Dewpoint: 7.0°C (45°F) [RH = 63%]
Pressure (altimeter): 29.79 inches Hg (1009.0 mb)
Winds: from the WSW (240 degrees) at 12 MPH (10 knots; 5.1 m/s)
Visibility: 6 or more miles (10+ km)
Ceiling: at least 12,000 feet AGL
Clouds: few clouds at 2300 feet AGL
scattered clouds at 8000 feet AGL
Weather: no significant weather observed at this time

METAR text: DAAG 020500Z 24008KT 210V270 9999 FEW023 SCT080 14/07 Q1009
Conditions at: DAAG (DAR-EL-BEIDA/HOU, DZ) observed 0500 UTC 02 December 2021
Temperature: 14.0°C (57°F)
Dewpoint: 7.0°C (45°F) [RH = 63%]
Pressure (altimeter): 29.79 inches Hg (1009.0 mb)
Winds: from the WSW (240 degrees) at 9 MPH (8 knots; 4.1 m/s)
Visibility: 6 or more miles (10+ km)
Ceiling: at least 12,000 feet AGL
Clouds: few clouds at 2300 feet AGL
scattered clouds at 8000 feet AGL
Weather: no significant weather observed at this time

METAR text: DAAG 020430Z 24009KT 210V270 9999 FEW023 SCT080 14/07 Q1010
Conditions at: DAAG (DAR-EL-BEIDA/HOU, DZ) observed 0430 UTC 02 December 2021
Temperature: 14.0°C (57°F)
Dewpoint: 7.0°C (45°F) [RH = 63%]
Pressure (altimeter): 29.82 inches Hg (1010.0 mb)
Winds: from the WSW (240 degrees) at 10 MPH (9 knots; 4.6 m/s)
Visibility: 6 or more miles (10+ km)
Ceiling: at least 12,000 feet AGL
Clouds: few clouds at 2300 feet AGL
scattered clouds at 8000 feet AGL
Weather: no significant weather observed at this time

METAR text: DAAG 020400Z 24009KT 210V270 9999 FEW023 SCT080 14/07 Q1010
Conditions at: DAAG (DAR-EL-BEIDA/HOU, DZ) observed 0400 UTC 02 December 2021
Temperature: 14.0°C (57°F)
Dewpoint: 7.0°C (45°F) [RH = 63%]
Pressure (altimeter): 29.82 inches Hg (1010.0 mb)
Winds: from the WSW (240 degrees) at 10 MPH (9 knots; 4.6 m/s)
Visibility: 6 or more miles (10+ km)
Ceiling: at least 12,000 feet AGL
Clouds: few clouds at 2300 feet AGL
scattered clouds at 8000 feet AGL
Weather: no significant weather observed at this time

Forecast for: DAAG (DAR-EL-BEIDA/HOU, DZ)
Text: TAF DAAG 031100Z 0312/0412 32012KT 9999 FEW020 SCT040
Forecast period: 1200 to 1300 UTC 03 December 2021
Forecast type: FROM: standard forecast or significant change
Winds: from the NW (320 degrees) at 14 MPH (12 knots; 6.2 m/s)
Visibility: 6 or more miles (10+ km)
Ceiling: at least 12,000 feet AGL
Clouds: few clouds at 2000 feet AGL
scattered clouds at 4000 feet AGL
Weather: no significant weather forecast for this period
Text: PROB30
Forecast period: 1200 to 1800 UTC 03 December 2021
Forecast type: TEMPORARY: The following changes expected for less than half the time period
Visibility: missing
Ceiling: at least 12,000 feet AGL
Clouds: few clouds at 2300 feet AGL
Weather: no significant weather forecast for this period
Text: TEMPO 0312/0318 FEW023TCU
Forecast period: 1300 to 1700 UTC 03 December 2021
Forecast type: BECOMING: Conditions expected to become as follows by 1600 UTC 03 December 2021
Winds: from the NE (40 degrees) at 12 MPH (10 knots; 5.1 m/s)
Visibility: 6 or more miles (10+ km)
Ceiling: at least 12,000 feet AGL
Clouds: few clouds at 2000 feet AGL
scattered clouds at 4000 feet AGL
Weather: no significant weather forecast for this period
Text: BECMG 0313/0316 04010KT
Forecast period: 1700 UTC 03 December 2021 to 0900 UTC 04 December 2021
Forecast type: BECOMING: Conditions expected to become as follows by 2000 UTC 03 December 2021
Winds: variable direction winds at 2 MPH (2 knots; 1.0 m/s)
Visibility: 6 or more miles (10+ km)
Ceiling: at least 12,000 feet AGL
Clouds: few clouds at 2000 feet AGL
scattered clouds at 4000 feet AGL
Weather: no significant weather forecast for this period
Text: BECMG 0317/0320 VRB02KT
Forecast period: 0900 to 1200 UTC 04 December 2021
Forecast type: BECOMING: Conditions expected to become as follows by 1200 UTC 04 December 2021
Winds: from the WSW (240 degrees) at 12 MPH (10 knots; 5.1 m/s)
Visibility: 6 or more miles (10+ km)
Ceiling: at least 12,000 feet AGL
Clouds: few clouds at 2000 feet AGL
scattered clouds at 4000 feet AGL
Weather: no significant weather forecast for this period